sensor_id;sensor_type;location;lat;lon;timestamp;P1;P2;P0
73517;PMS5003;61766;60.318;25.044;2023-11-19T00:00:18;24;24;
73517;PMS5003;61766;60.318;25.044;2023-11-19T00:02:44;28;27;
73517;PMS5003;61766;60.318;25.044;2023-11-19T00:05:09;27;27;
73517;PMS5003;61766;60.318;25.044;2023-11-19T00:07:34;23;22;
73517;PMS5003;61766;60.318;25.044;2023-11-19T00:09:59;28;26;
73517;PMS5003;61766;60.318;25.044;2023-11-19T00:12:25;27;24;
73517;PMS5003;61766;60.318;25.044;2023-11-19T00:14:50;33;30;
73517;PMS5003;61766;60.318;25.044;2023-11-19T00:17:16;28;28;
73517;PMS5003;61766;60.318;25.044;2023-11-19T00:19:41;26;23;
73517;PMS5003;61766;60.318;25.044;2023-11-19T00:22:07;27;27;
73517;PMS5003;61766;60.318;25.044;2023-11-19T00:24:33;25;25;
73517;PMS5003;61766;60.318;25.044;2023-11-19T00:26:58;30;27;
73517;PMS5003;61766;60.318;25.044;2023-11-19T00:29:24;30;30;
73517;PMS5003;61766;60.318;25.044;2023-11-19T00:31:49;27;27;
73517;PMS5003;61766;60.318;25.044;2023-11-19T00:34:15;24;23;
73517;PMS5003;61766;60.318;25.044;2023-11-19T00:36:40;29;28;
73517;PMS5003;61766;60.318;25.044;2023-11-19T00:39:05;32;30;
73517;PMS5003;61766;60.318;25.044;2023-11-19T00:41:31;27;27;
73517;PMS5003;61766;60.318;25.044;2023-11-19T00:43:57;34;31;
73517;PMS5003;61766;60.318;25.044;2023-11-19T00:46:22;29;28;
73517;PMS5003;61766;60.318;25.044;2023-11-19T00:48:47;39;38;
73517;PMS5003;61766;60.318;25.044;2023-11-19T00:51:13;29;29;
73517;PMS5003;61766;60.318;25.044;2023-11-19T00:53:38;34;30;
73517;PMS5003;61766;60.318;25.044;2023-11-19T00:56:04;36;35;
73517;PMS5003;61766;60.318;25.044;2023-11-19T00:58:29;41;37;
73517;PMS5003;61766;60.318;25.044;2023-11-19T01:00:55;39;38;
73517;PMS5003;61766;60.318;25.044;2023-11-19T01:03:20;34;33;
73517;PMS5003;61766;60.318;25.044;2023-11-19T01:05:46;30;29;
73517;PMS5003;61766;60.318;25.044;2023-11-19T01:08:12;39;37;
73517;PMS5003;61766;60.318;25.044;2023-11-19T01:10:37;37;35;
73517;PMS5003;61766;60.318;25.044;2023-11-19T01:13:03;43;39;
73517;PMS5003;61766;60.318;25.044;2023-11-19T01:15:28;33;30;
73517;PMS5003;61766;60.318;25.044;2023-11-19T01:17:54;30;29;
73517;PMS5003;61766;60.318;25.044;2023-11-19T01:20:19;35;34;
73517;PMS5003;61766;60.318;25.044;2023-11-19T01:22:44;39;37;
73517;PMS5003;61766;60.318;25.044;2023-11-19T01:25:10;35;33;
73517;PMS5003;61766;60.318;25.044;2023-11-19T01:27:35;33;31;
73517;PMS5003;61766;60.318;25.044;2023-11-19T01:30:01;37;34;
73517;PMS5003;61766;60.318;25.044;2023-11-19T01:32:26;27;26;
73517;PMS5003;61766;60.318;25.044;2023-11-19T01:34:52;35;32;
73517;PMS5003;61766;60.318;25.044;2023-11-19T01:37:17;33;29;
73517;PMS5003;61766;60.318;25.044;2023-11-19T01:39:43;35;32;
73517;PMS5003;61766;60.318;25.044;2023-11-19T01:42:07;29;27;
73517;PMS5003;61766;60.318;25.044;2023-11-19T01:44:33;29;29;
73517;PMS5003;61766;60.318;25.044;2023-11-19T01:46:59;29;28;
73517;PMS5003;61766;60.318;25.044;2023-11-19T01:49:24;35;33;
73517;PMS5003;61766;60.318;25.044;2023-11-19T01:51:50;31;31;
73517;PMS5003;61766;60.318;25.044;2023-11-19T01:54:15;36;35;
73517;PMS5003;61766;60.318;25.044;2023-11-19T01:56:41;32;32;
73517;PMS5003;61766;60.318;25.044;2023-11-19T01:59:06;38;36;
73517;PMS5003;61766;60.318;25.044;2023-11-19T02:01:31;32;31;
73517;PMS5003;61766;60.318;25.044;2023-11-19T02:03:57;38;34;
73517;PMS5003;61766;60.318;25.044;2023-11-19T02:06:23;34;31;
73517;PMS5003;61766;60.318;25.044;2023-11-19T02:08:49;34;32;
73517;PMS5003;61766;60.318;25.044;2023-11-19T02:11:14;27;27;
73517;PMS5003;61766;60.318;25.044;2023-11-19T02:13:40;37;35;
73517;PMS5003;61766;60.318;25.044;2023-11-19T02:16:05;32;30;
73517;PMS5003;61766;60.318;25.044;2023-11-19T02:18:31;28;24;
73517;PMS5003;61766;60.318;25.044;2023-11-19T02:20:56;37;36;
73517;PMS5003;61766;60.318;25.044;2023-11-19T02:23:21;32;30;
73517;PMS5003;61766;60.318;25.044;2023-11-19T02:25:47;27;25;
73517;PMS5003;61766;60.318;25.044;2023-11-19T02:28:12;29;27;
73517;PMS5003;61766;60.318;25.044;2023-11-19T02:30:38;30;29;
73517;PMS5003;61766;60.318;25.044;2023-11-19T02:33:03;30;26;
73517;PMS5003;61766;60.318;25.044;2023-11-19T02:35:28;28;28;
73517;PMS5003;61766;60.318;25.044;2023-11-19T02:37:54;31;27;
73517;PMS5003;61766;60.318;25.044;2023-11-19T02:40:19;34;32;
73517;PMS5003;61766;60.318;25.044;2023-11-19T02:42:44;31;28;
73517;PMS5003;61766;60.318;25.044;2023-11-19T02:45:10;31;28;
73517;PMS5003;61766;60.318;25.044;2023-11-19T02:47:36;26;25;
73517;PMS5003;61766;60.318;25.044;2023-11-19T02:50:01;23;22;
73517;PMS5003;61766;60.318;25.044;2023-11-19T02:52:27;22;22;
73517;PMS5003;61766;60.318;25.044;2023-11-19T02:54:52;34;32;
73517;PMS5003;61766;60.318;25.044;2023-11-19T02:57:17;35;34;
73517;PMS5003;61766;60.318;25.044;2023-11-19T02:59:42;29;28;
73517;PMS5003;61766;60.318;25.044;2023-11-19T03:02:07;29;27;
73517;PMS5003;61766;60.318;25.044;2023-11-19T03:04:33;30;28;
73517;PMS5003;61766;60.318;25.044;2023-11-19T03:06:58;26;24;
73517;PMS5003;61766;60.318;25.044;2023-11-19T03:09:23;26;24;
73517;PMS5003;61766;60.318;25.044;2023-11-19T03:11:49;24;23;
73517;PMS5003;61766;60.318;25.044;2023-11-19T03:14:14;31;25;
73517;PMS5003;61766;60.318;25.044;2023-11-19T03:16:40;24;24;
73517;PMS5003;61766;60.318;25.044;2023-11-19T03:19:06;25;23;
73517;PMS5003;61766;60.318;25.044;2023-11-19T03:21:31;33;30;
73517;PMS5003;61766;60.318;25.044;2023-11-19T03:23:57;24;24;
73517;PMS5003;61766;60.318;25.044;2023-11-19T03:26:22;28;25;
73517;PMS5003;61766;60.318;25.044;2023-11-19T03:28:48;24;23;
73517;PMS5003;61766;60.318;25.044;2023-11-19T03:31:13;22;21;
73517;PMS5003;61766;60.318;25.044;2023-11-19T03:33:38;23;23;
73517;PMS5003;61766;60.318;25.044;2023-11-19T03:36:04;27;26;
73517;PMS5003;61766;60.318;25.044;2023-11-19T03:38:29;29;28;
73517;PMS5003;61766;60.318;25.044;2023-11-19T03:40:55;27;26;
73517;PMS5003;61766;60.318;25.044;2023-11-19T03:43:20;22;21;
73517;PMS5003;61766;60.318;25.044;2023-11-19T03:45:46;23;21;
73517;PMS5003;61766;60.318;25.044;2023-11-19T03:48:12;26;23;
73517;PMS5003;61766;60.318;25.044;2023-11-19T03:50:37;22;22;
73517;PMS5003;61766;60.318;25.044;2023-11-19T03:53:02;21;21;
73517;PMS5003;61766;60.318;25.044;2023-11-19T03:55:28;25;23;
73517;PMS5003;61766;60.318;25.044;2023-11-19T03:57:53;22;22;
73517;PMS5003;61766;60.318;25.044;2023-11-19T04:00:19;28;27;
73517;PMS5003;61766;60.318;25.044;2023-11-19T04:02:44;26;23;
73517;PMS5003;61766;60.318;25.044;2023-11-19T04:05:10;22;21;
73517;PMS5003;61766;60.318;25.044;2023-11-19T04:07:35;24;24;
73517;PMS5003;61766;60.318;25.044;2023-11-19T04:10:01;26;22;
73517;PMS5003;61766;60.318;25.044;2023-11-19T04:12:26;24;23;
73517;PMS5003;61766;60.318;25.044;2023-11-19T04:14:53;23;23;
73517;PMS5003;61766;60.318;25.044;2023-11-19T04:17:18;19;18;
73517;PMS5003;61766;60.318;25.044;2023-11-19T04:19:43;22;22;
73517;PMS5003;61766;60.318;25.044;2023-11-19T04:22:08;21;19;
73517;PMS5003;61766;60.318;25.044;2023-11-19T04:24:33;27;25;
73517;PMS5003;61766;60.318;25.044;2023-11-19T04:26:59;25;25;
73517;PMS5003;61766;60.318;25.044;2023-11-19T04:29:25;21;20;
73517;PMS5003;61766;60.318;25.044;2023-11-19T04:31:50;25;24;
73517;PMS5003;61766;60.318;25.044;2023-11-19T04:34:16;24;20;
73517;PMS5003;61766;60.318;25.044;2023-11-19T04:36:41;17;16;
73517;PMS5003;61766;60.318;25.044;2023-11-19T04:39:07;26;26;
73517;PMS5003;61766;60.318;25.044;2023-11-19T04:41:33;20;19;
73517;PMS5003;61766;60.318;25.044;2023-11-19T04:43:58;20;20;
73517;PMS5003;61766;60.318;25.044;2023-11-19T04:46:23;20;19;
73517;PMS5003;61766;60.318;25.044;2023-11-19T04:48:49;26;26;
73517;PMS5003;61766;60.318;25.044;2023-11-19T04:51:15;25;23;
73517;PMS5003;61766;60.318;25.044;2023-11-19T04:53:41;24;21;
73517;PMS5003;61766;60.318;25.044;2023-11-19T04:56:08;25;24;
73517;PMS5003;61766;60.318;25.044;2023-11-19T04:58:32;20;20;
73517;PMS5003;61766;60.318;25.044;2023-11-19T05:00:57;21;20;
73517;PMS5003;61766;60.318;25.044;2023-11-19T05:03:23;18;18;
73517;PMS5003;61766;60.318;25.044;2023-11-19T05:05:49;33;30;
73517;PMS5003;61766;60.318;25.044;2023-11-19T05:08:14;18;17;
73517;PMS5003;61766;60.318;25.044;2023-11-19T05:10:40;27;27;
73517;PMS5003;61766;60.318;25.044;2023-11-19T05:13:05;20;20;
73517;PMS5003;61766;60.318;25.044;2023-11-19T05:15:30;26;24;
73517;PMS5003;61766;60.318;25.044;2023-11-19T05:17:56;23;21;
73517;PMS5003;61766;60.318;25.044;2023-11-19T05:20:21;30;29;
73517;PMS5003;61766;60.318;25.044;2023-11-19T05:22:46;21;21;
73517;PMS5003;61766;60.318;25.044;2023-11-19T05:25:11;20;20;
73517;PMS5003;61766;60.318;25.044;2023-11-19T05:27:36;24;20;
73517;PMS5003;61766;60.318;25.044;2023-11-19T05:30:02;21;21;
73517;PMS5003;61766;60.318;25.044;2023-11-19T05:32:27;19;19;
73517;PMS5003;61766;60.318;25.044;2023-11-19T05:34:53;17;17;
73517;PMS5003;61766;60.318;25.044;2023-11-19T05:37:18;19;19;
73517;PMS5003;61766;60.318;25.044;2023-11-19T05:39:44;23;19;
73517;PMS5003;61766;60.318;25.044;2023-11-19T05:42:09;27;26;
73517;PMS5003;61766;60.318;25.044;2023-11-19T05:44:34;17;16;
73517;PMS5003;61766;60.318;25.044;2023-11-19T05:46:59;20;20;
73517;PMS5003;61766;60.318;25.044;2023-11-19T05:49:25;21;20;
73517;PMS5003;61766;60.318;25.044;2023-11-19T05:51:50;26;21;
73517;PMS5003;61766;60.318;25.044;2023-11-19T05:54:16;17;17;
73517;PMS5003;61766;60.318;25.044;2023-11-19T05:56:41;24;24;
73517;PMS5003;61766;60.318;25.044;2023-11-19T05:59:07;24;23;
73517;PMS5003;61766;60.318;25.044;2023-11-19T06:01:33;19;18;
73517;PMS5003;61766;60.318;25.044;2023-11-19T06:03:57;20;18;
73517;PMS5003;61766;60.318;25.044;2023-11-19T06:06:22;18;18;
73517;PMS5003;61766;60.318;25.044;2023-11-19T06:08:48;16;15;
73517;PMS5003;61766;60.318;25.044;2023-11-19T06:11:13;21;18;
73517;PMS5003;61766;60.318;25.044;2023-11-19T06:13:38;16;16;
73517;PMS5003;61766;60.318;25.044;2023-11-19T06:16:04;19;19;
73517;PMS5003;61766;60.318;25.044;2023-11-19T06:18:29;22;20;
73517;PMS5003;61766;60.318;25.044;2023-11-19T06:20:55;16;16;
73517;PMS5003;61766;60.318;25.044;2023-11-19T06:23:20;19;19;
73517;PMS5003;61766;60.318;25.044;2023-11-19T06:25:46;25;24;
73517;PMS5003;61766;60.318;25.044;2023-11-19T06:28:11;24;22;
73517;PMS5003;61766;60.318;25.044;2023-11-19T06:30:36;20;19;
73517;PMS5003;61766;60.318;25.044;2023-11-19T06:33:02;24;21;
73517;PMS5003;61766;60.318;25.044;2023-11-19T06:35:27;24;21;
73517;PMS5003;61766;60.318;25.044;2023-11-19T06:37:52;21;20;
73517;PMS5003;61766;60.318;25.044;2023-11-19T06:40:18;29;28;
73517;PMS5003;61766;60.318;25.044;2023-11-19T06:42:43;24;22;
73517;PMS5003;61766;60.318;25.044;2023-11-19T06:45:08;25;22;
73517;PMS5003;61766;60.318;25.044;2023-11-19T06:47:33;29;28;
73517;PMS5003;61766;60.318;25.044;2023-11-19T06:49:58;30;29;
73517;PMS5003;61766;60.318;25.044;2023-11-19T06:52:23;33;30;
73517;PMS5003;61766;60.318;25.044;2023-11-19T06:54:49;31;29;
73517;PMS5003;61766;60.318;25.044;2023-11-19T06:57:14;31;30;
73517;PMS5003;61766;60.318;25.044;2023-11-19T06:59:39;35;34;
73517;PMS5003;61766;60.318;25.044;2023-11-19T07:02:04;25;22;
73517;PMS5003;61766;60.318;25.044;2023-11-19T07:04:29;23;21;
73517;PMS5003;61766;60.318;25.044;2023-11-19T07:06:55;40;33;
73517;PMS5003;61766;60.318;25.044;2023-11-19T07:09:21;30;29;
73517;PMS5003;61766;60.318;25.044;2023-11-19T07:11:46;25;25;
73517;PMS5003;61766;60.318;25.044;2023-11-19T07:14:12;29;26;
73517;PMS5003;61766;60.318;25.044;2023-11-19T07:16:38;29;29;
73517;PMS5003;61766;60.318;25.044;2023-11-19T07:19:03;24;23;
73517;PMS5003;61766;60.318;25.044;2023-11-19T07:21:28;32;31;
73517;PMS5003;61766;60.318;25.044;2023-11-19T07:23:53;29;26;
73517;PMS5003;61766;60.318;25.044;2023-11-19T07:26:18;15;15;
73517;PMS5003;61766;60.318;25.044;2023-11-19T07:28:43;15;15;
73517;PMS5003;61766;60.318;25.044;2023-11-19T07:31:09;7;6;
73517;PMS5003;61766;60.318;25.044;2023-11-19T07:33:34;6;6;
73517;PMS5003;61766;60.318;25.044;2023-11-19T07:36:00;4;4;
73517;PMS5003;61766;60.318;25.044;2023-11-19T07:38:25;4;3;
73517;PMS5003;61766;60.318;25.044;2023-11-19T07:40:50;4;4;
73517;PMS5003;61766;60.318;25.044;2023-11-19T07:43:15;5;5;
73517;PMS5003;61766;60.318;25.044;2023-11-19T07:45:41;3;3;
73517;PMS5003;61766;60.318;25.044;2023-11-19T07:48:06;2;2;
73517;PMS5003;61766;60.318;25.044;2023-11-19T07:50:31;3;3;
73517;PMS5003;61766;60.318;25.044;2023-11-19T07:52:57;3;2;
73517;PMS5003;61766;60.318;25.044;2023-11-19T07:55:22;3;3;
73517;PMS5003;61766;60.318;25.044;2023-11-19T07:57:47;3;2;
73517;PMS5003;61766;60.318;25.044;2023-11-19T08:00:13;4;4;
73517;PMS5003;61766;60.318;25.044;2023-11-19T08:02:37;3;2;
73517;PMS5003;61766;60.318;25.044;2023-11-19T08:05:03;3;3;
73517;PMS5003;61766;60.318;25.044;2023-11-19T08:07:28;2;2;
73517;PMS5003;61766;60.318;25.044;2023-11-19T08:09:53;2;2;
73517;PMS5003;61766;60.318;25.044;2023-11-19T08:12:18;1;1;
73517;PMS5003;61766;60.318;25.044;2023-11-19T08:14:44;4;3;
73517;PMS5003;61766;60.318;25.044;2023-11-19T08:17:09;2;2;
73517;PMS5003;61766;60.318;25.044;2023-11-19T08:19:34;3;2;
73517;PMS5003;61766;60.318;25.044;2023-11-19T08:21:59;2;2;
73517;PMS5003;61766;60.318;25.044;2023-11-19T08:24:24;1;1;
73517;PMS5003;61766;60.318;25.044;2023-11-19T08:26:50;2;2;
73517;PMS5003;61766;60.318;25.044;2023-11-19T08:29:15;2;2;
73517;PMS5003;61766;60.318;25.044;2023-11-19T08:31:42;2;2;
73517;PMS5003;61766;60.318;25.044;2023-11-19T08:34:05;3;3;
73517;PMS5003;61766;60.318;25.044;2023-11-19T08:36:31;2;2;
73517;PMS5003;61766;60.318;25.044;2023-11-19T08:38:56;3;3;
73517;PMS5003;61766;60.318;25.044;2023-11-19T08:41:21;3;3;
73517;PMS5003;61766;60.318;25.044;2023-11-19T08:43:46;3;3;
73517;PMS5003;61766;60.318;25.044;2023-11-19T08:46:12;3;3;
73517;PMS5003;61766;60.318;25.044;2023-11-19T08:48:37;4;4;
73517;PMS5003;61766;60.318;25.044;2023-11-19T08:51:02;4;3;
73517;PMS5003;61766;60.318;25.044;2023-11-19T08:53:27;3;3;
73517;PMS5003;61766;60.318;25.044;2023-11-19T08:55:52;3;3;
73517;PMS5003;61766;60.318;25.044;2023-11-19T08:58:18;3;3;
73517;PMS5003;61766;60.318;25.044;2023-11-19T09:00:43;5;4;
73517;PMS5003;61766;60.318;25.044;2023-11-19T09:03:08;7;5;
73517;PMS5003;61766;60.318;25.044;2023-11-19T09:05:33;4;4;
73517;PMS5003;61766;60.318;25.044;2023-11-19T09:07:58;5;5;
73517;PMS5003;61766;60.318;25.044;2023-11-19T09:10:24;5;5;
73517;PMS5003;61766;60.318;25.044;2023-11-19T09:12:49;5;5;
73517;PMS5003;61766;60.318;25.044;2023-11-19T09:15:15;4;4;
73517;PMS5003;61766;60.318;25.044;2023-11-19T09:17:39;4;4;
73517;PMS5003;61766;60.318;25.044;2023-11-19T09:20:05;5;5;
73517;PMS5003;61766;60.318;25.044;2023-11-19T09:22:30;5;4;
73517;PMS5003;61766;60.318;25.044;2023-11-19T09:24:55;4;4;
73517;PMS5003;61766;60.318;25.044;2023-11-19T09:27:20;4;4;
73517;PMS5003;61766;60.318;25.044;2023-11-19T09:29:46;5;5;
73517;PMS5003;61766;60.318;25.044;2023-11-19T09:32:11;4;4;
73517;PMS5003;61766;60.318;25.044;2023-11-19T09:34:36;5;5;
73517;PMS5003;61766;60.318;25.044;2023-11-19T09:37:01;5;5;
73517;PMS5003;61766;60.318;25.044;2023-11-19T09:39:27;4;4;
73517;PMS5003;61766;60.318;25.044;2023-11-19T09:41:52;5;5;
73517;PMS5003;61766;60.318;25.044;2023-11-19T09:44:17;5;4;
73517;PMS5003;61766;60.318;25.044;2023-11-19T09:46:42;6;5;
73517;PMS5003;61766;60.318;25.044;2023-11-19T09:49:07;5;4;
73517;PMS5003;61766;60.318;25.044;2023-11-19T09:51:32;5;5;
73517;PMS5003;61766;60.318;25.044;2023-11-19T09:53:57;5;5;
73517;PMS5003;61766;60.318;25.044;2023-11-19T09:56:23;6;6;
73517;PMS5003;61766;60.318;25.044;2023-11-19T09:58:48;8;8;
73517;PMS5003;61766;60.318;25.044;2023-11-19T10:01:13;8;8;
73517;PMS5003;61766;60.318;25.044;2023-11-19T10:03:39;7;7;
73517;PMS5003;61766;60.318;25.044;2023-11-19T10:06:04;6;6;
73517;PMS5003;61766;60.318;25.044;2023-11-19T10:08:29;7;7;
73517;PMS5003;61766;60.318;25.044;2023-11-19T10:10:54;11;11;
73517;PMS5003;61766;60.318;25.044;2023-11-19T10:13:19;9;9;
73517;PMS5003;61766;60.318;25.044;2023-11-19T10:15:44;6;6;
73517;PMS5003;61766;60.318;25.044;2023-11-19T10:18:09;6;6;
73517;PMS5003;61766;60.318;25.044;2023-11-19T10:20:35;8;8;
73517;PMS5003;61766;60.318;25.044;2023-11-19T10:23:00;5;5;
73517;PMS5003;61766;60.318;25.044;2023-11-19T10:25:25;7;6;
73517;PMS5003;61766;60.318;25.044;2023-11-19T10:27:50;3;3;
73517;PMS5003;61766;60.318;25.044;2023-11-19T10:30:17;5;5;
73517;PMS5003;61766;60.318;25.044;2023-11-19T10:32:40;4;4;
73517;PMS5003;61766;60.318;25.044;2023-11-19T10:35:06;3;3;
73517;PMS5003;61766;60.318;25.044;2023-11-19T10:37:31;2;2;
73517;PMS5003;61766;60.318;25.044;2023-11-19T10:39:56;3;3;
73517;PMS5003;61766;60.318;25.044;2023-11-19T10:42:22;5;4;
73517;PMS5003;61766;60.318;25.044;2023-11-19T10:44:47;3;3;
73517;PMS5003;61766;60.318;25.044;2023-11-19T10:47:12;5;4;
73517;PMS5003;61766;60.318;25.044;2023-11-19T10:49:37;3;3;
73517;PMS5003;61766;60.318;25.044;2023-11-19T10:52:02;2;2;
73517;PMS5003;61766;60.318;25.044;2023-11-19T10:54:27;3;3;
73517;PMS5003;61766;60.318;25.044;2023-11-19T10:56:54;4;4;
73517;PMS5003;61766;60.318;25.044;2023-11-19T10:59:18;2;2;
73517;PMS5003;61766;60.318;25.044;2023-11-19T11:01:44;4;4;
73517;PMS5003;61766;60.318;25.044;2023-11-19T11:04:10;4;3;
73517;PMS5003;61766;60.318;25.044;2023-11-19T11:06:34;3;3;
73517;PMS5003;61766;60.318;25.044;2023-11-19T11:08:59;3;3;
73517;PMS5003;61766;60.318;25.044;2023-11-19T11:11:24;2;2;
73517;PMS5003;61766;60.318;25.044;2023-11-19T11:13:50;2;2;
73517;PMS5003;61766;60.318;25.044;2023-11-19T11:16:14;4;3;
73517;PMS5003;61766;60.318;25.044;2023-11-19T11:18:40;3;3;
73517;PMS5003;61766;60.318;25.044;2023-11-19T11:21:06;3;3;
73517;PMS5003;61766;60.318;25.044;2023-11-19T11:23:39;4;3;
73517;PMS5003;61766;60.318;25.044;2023-11-19T11:25:58;2;2;
73517;PMS5003;61766;60.318;25.044;2023-11-19T11:28:24;3;3;
73517;PMS5003;61766;60.318;25.044;2023-11-19T11:30:49;3;3;
73517;PMS5003;61766;60.318;25.044;2023-11-19T11:33:15;3;3;
73517;PMS5003;61766;60.318;25.044;2023-11-19T11:35:38;1;1;
73517;PMS5003;61766;60.318;25.044;2023-11-19T11:38:02;3;3;
73517;PMS5003;61766;60.318;25.044;2023-11-19T11:40:26;4;3;
73517;PMS5003;61766;60.318;25.044;2023-11-19T11:42:51;4;3;
73517;PMS5003;61766;60.318;25.044;2023-11-19T11:45:17;3;2;
73517;PMS5003;61766;60.318;25.044;2023-11-19T11:50:07;3;3;
73517;PMS5003;61766;60.318;25.044;2023-11-19T11:52:32;3;3;
73517;PMS5003;61766;60.318;25.044;2023-11-19T11:55:02;2;2;
73517;PMS5003;61766;60.318;25.044;2023-11-19T11:57:22;2;2;
73517;PMS5003;61766;60.318;25.044;2023-11-19T11:59:48;1;1;
73517;PMS5003;61766;60.318;25.044;2023-11-19T12:02:13;3;2;
73517;PMS5003;61766;60.318;25.044;2023-11-19T12:04:39;4;4;
73517;PMS5003;61766;60.318;25.044;2023-11-19T12:07:04;2;2;
73517;PMS5003;61766;60.318;25.044;2023-11-19T12:09:29;3;2;
73517;PMS5003;61766;60.318;25.044;2023-11-19T12:14:19;3;3;
73517;PMS5003;61766;60.318;25.044;2023-11-19T12:16:44;2;2;
73517;PMS5003;61766;60.318;25.044;2023-11-19T12:19:09;2;2;
73517;PMS5003;61766;60.318;25.044;2023-11-19T12:21:35;2;2;
73517;PMS5003;61766;60.318;25.044;2023-11-19T12:24:00;2;2;
73517;PMS5003;61766;60.318;25.044;2023-11-19T12:26:31;2;2;
73517;PMS5003;61766;60.318;25.044;2023-11-19T12:31:16;3;3;
73517;PMS5003;61766;60.318;25.044;2023-11-19T12:33:41;3;3;
73517;PMS5003;61766;60.318;25.044;2023-11-19T12:36:07;3;3;
73517;PMS5003;61766;60.318;25.044;2023-11-19T12:38:31;5;5;
73517;PMS5003;61766;60.318;25.044;2023-11-19T12:41:03;6;6;
73517;PMS5003;61766;60.318;25.044;2023-11-19T12:43:22;4;4;
73517;PMS5003;61766;60.318;25.044;2023-11-19T12:45:47;6;6;
73517;PMS5003;61766;60.318;25.044;2023-11-19T12:48:12;7;7;
73517;PMS5003;61766;60.318;25.044;2023-11-19T12:53:02;8;8;
73517;PMS5003;61766;60.318;25.044;2023-11-19T12:55:29;5;5;
73517;PMS5003;61766;60.318;25.044;2023-11-19T12:57:53;3;3;
73517;PMS5003;61766;60.318;25.044;2023-11-19T13:00:18;5;4;
73517;PMS5003;61766;60.318;25.044;2023-11-19T13:02:44;10;10;
73517;PMS5003;61766;60.318;25.044;2023-11-19T13:07:34;12;12;
73517;PMS5003;61766;60.318;25.044;2023-11-19T13:10:01;11;10;
73517;PMS5003;61766;60.318;25.044;2023-11-19T13:12:24;15;14;
73517;PMS5003;61766;60.318;25.044;2023-11-19T13:14:50;12;12;
73517;PMS5003;61766;60.318;25.044;2023-11-19T13:17:15;9;9;
73517;PMS5003;61766;60.318;25.044;2023-11-19T13:19:41;12;12;
73517;PMS5003;61766;60.318;25.044;2023-11-19T13:22:06;6;6;
73517;PMS5003;61766;60.318;25.044;2023-11-19T13:24:31;6;6;
73517;PMS5003;61766;60.318;25.044;2023-11-19T13:26:57;5;5;
73517;PMS5003;61766;60.318;25.044;2023-11-19T13:29:22;18;17;
73517;PMS5003;61766;60.318;25.044;2023-11-19T13:31:47;15;15;
73517;PMS5003;61766;60.318;25.044;2023-11-19T13:34:13;13;13;
73517;PMS5003;61766;60.318;25.044;2023-11-19T13:36:38;11;11;
73517;PMS5003;61766;60.318;25.044;2023-11-19T13:39:03;14;12;
73517;PMS5003;61766;60.318;25.044;2023-11-19T13:41:28;18;17;
73517;PMS5003;61766;60.318;25.044;2023-11-19T13:43:56;9;9;
73517;PMS5003;61766;60.318;25.044;2023-11-19T13:46:19;7;7;
73517;PMS5003;61766;60.318;25.044;2023-11-19T13:48:44;7;7;
73517;PMS5003;61766;60.318;25.044;2023-11-19T13:51:09;8;7;
73517;PMS5003;61766;60.318;25.044;2023-11-19T13:53:35;4;4;
73517;PMS5003;61766;60.318;25.044;2023-11-19T13:56:00;6;6;
73517;PMS5003;61766;60.318;25.044;2023-11-19T13:58:25;5;4;
73517;PMS5003;61766;60.318;25.044;2023-11-19T14:00:50;3;3;
73517;PMS5003;61766;60.318;25.044;2023-11-19T14:03:15;7;7;
73517;PMS5003;61766;60.318;25.044;2023-11-19T14:05:41;6;6;
73517;PMS5003;61766;60.318;25.044;2023-11-19T14:08:06;6;5;
73517;PMS5003;61766;60.318;25.044;2023-11-19T14:10:31;3;3;
73517;PMS5003;61766;60.318;25.044;2023-11-19T14:12:56;3;3;
73517;PMS5003;61766;60.318;25.044;2023-11-19T14:15:21;5;5;
73517;PMS5003;61766;60.318;25.044;2023-11-19T14:17:46;10;9;
73517;PMS5003;61766;60.318;25.044;2023-11-19T14:20:11;7;7;
73517;PMS5003;61766;60.318;25.044;2023-11-19T14:22:37;9;9;
73517;PMS5003;61766;60.318;25.044;2023-11-19T14:25:02;9;9;
73517;PMS5003;61766;60.318;25.044;2023-11-19T14:27:27;11;11;
73517;PMS5003;61766;60.318;25.044;2023-11-19T14:29:52;7;7;
73517;PMS5003;61766;60.318;25.044;2023-11-19T14:32:17;6;6;
73517;PMS5003;61766;60.318;25.044;2023-11-19T14:34:42;5;5;
73517;PMS5003;61766;60.318;25.044;2023-11-19T14:37:08;6;6;
73517;PMS5003;61766;60.318;25.044;2023-11-19T14:39:33;5;5;
73517;PMS5003;61766;60.318;25.044;2023-11-19T14:41:59;7;7;
73517;PMS5003;61766;60.318;25.044;2023-11-19T14:44:24;7;7;
73517;PMS5003;61766;60.318;25.044;2023-11-19T14:46:50;6;6;
73517;PMS5003;61766;60.318;25.044;2023-11-19T14:49:15;8;8;
73517;PMS5003;61766;60.318;25.044;2023-11-19T14:51:40;8;7;
73517;PMS5003;61766;60.318;25.044;2023-11-19T14:54:05;5;5;
73517;PMS5003;61766;60.318;25.044;2023-11-19T14:56:30;7;7;
73517;PMS5003;61766;60.318;25.044;2023-11-19T14:58:56;9;8;
73517;PMS5003;61766;60.318;25.044;2023-11-19T15:01:21;7;7;
73517;PMS5003;61766;60.318;25.044;2023-11-19T15:03:46;7;7;
73517;PMS5003;61766;60.318;25.044;2023-11-19T15:06:12;8;7;
73517;PMS5003;61766;60.318;25.044;2023-11-19T15:08:37;8;8;
73517;PMS5003;61766;60.318;25.044;2023-11-19T15:11:02;8;7;
73517;PMS5003;61766;60.318;25.044;2023-11-19T15:13:28;7;7;
73517;PMS5003;61766;60.318;25.044;2023-11-19T15:15:54;11;10;
73517;PMS5003;61766;60.318;25.044;2023-11-19T15:18:18;8;8;
73517;PMS5003;61766;60.318;25.044;2023-11-19T15:20:44;8;8;
73517;PMS5003;61766;60.318;25.044;2023-11-19T15:23:09;8;8;
73517;PMS5003;61766;60.318;25.044;2023-11-19T15:25:34;9;8;
73517;PMS5003;61766;60.318;25.044;2023-11-19T15:27:59;11;10;
73517;PMS5003;61766;60.318;25.044;2023-11-19T15:30:25;8;8;
73517;PMS5003;61766;60.318;25.044;2023-11-19T15:32:50;9;8;
73517;PMS5003;61766;60.318;25.044;2023-11-19T15:35:15;7;7;
73517;PMS5003;61766;60.318;25.044;2023-11-19T15:37:40;8;8;
73517;PMS5003;61766;60.318;25.044;2023-11-19T15:40:06;9;8;
73517;PMS5003;61766;60.318;25.044;2023-11-19T15:42:31;12;12;
73517;PMS5003;61766;60.318;25.044;2023-11-19T15:44:56;11;10;
73517;PMS5003;61766;60.318;25.044;2023-11-19T15:47:21;8;8;
73517;PMS5003;61766;60.318;25.044;2023-11-19T15:49:46;7;7;
73517;PMS5003;61766;60.318;25.044;2023-11-19T15:52:11;12;12;
73517;PMS5003;61766;60.318;25.044;2023-11-19T15:54:37;10;9;
73517;PMS5003;61766;60.318;25.044;2023-11-19T15:57:03;10;9;
73517;PMS5003;61766;60.318;25.044;2023-11-19T15:59:28;14;14;
73517;PMS5003;61766;60.318;25.044;2023-11-19T16:01:53;11;9;
73517;PMS5003;61766;60.318;25.044;2023-11-19T16:04:18;14;12;
73517;PMS5003;61766;60.318;25.044;2023-11-19T16:06:43;11;11;
73517;PMS5003;61766;60.318;25.044;2023-11-19T16:09:09;10;9;
73517;PMS5003;61766;60.318;25.044;2023-11-19T16:11:35;12;12;
73517;PMS5003;61766;60.318;25.044;2023-11-19T16:14:00;11;11;